createdAt,value
2018-11-05T00:02:29.476Z,55.63
2018-11-05T00:06:33.541Z,56.27
2018-11-05T00:10:37.538Z,49.77
2018-11-05T00:14:41.419Z,48.97
2018-11-05T00:18:45.535Z,46.70
2018-11-05T00:22:49.443Z,53.70
2018-11-05T00:26:54.280Z,55.27
2018-11-05T00:30:58.460Z,56.55
2018-11-05T00:35:02.444Z,56.30
2018-11-05T00:39:09.140Z,56.43
2018-11-05T00:43:13.059Z,57.95
2018-11-05T00:47:17.316Z,45.63
2018-11-05T00:51:21.237Z,44.87
2018-11-05T00:55:25.172Z,53.00
2018-11-05T00:59:29.157Z,49.07
2018-11-05T01:03:33.052Z,46.53
2018-11-05T01:07:37.006Z,52.10
2018-11-05T01:11:40.985Z,59.50
2018-11-05T01:15:46.069Z,51.20
2018-11-05T01:19:51.395Z,42.90
2018-11-05T01:23:56.298Z,47.93
2018-11-05T01:28:01.229Z,54.73
2018-11-05T01:32:06.115Z,52.03
2018-11-05T01:36:10.447Z,46.67
2018-11-05T01:40:15.750Z,53.80
2018-11-05T01:44:20.095Z,47.83
2018-11-05T01:48:24.831Z,53.00
2018-11-05T01:52:30.273Z,47.13
2018-11-05T01:56:34.698Z,42.53
2018-11-05T02:00:39.102Z,51.27
2018-11-05T02:04:43.756Z,48.07
2018-11-05T02:08:48.567Z,48.97
2018-11-05T02:12:53.409Z,55.20
2018-11-05T02:16:57.990Z,47.50
2018-11-05T02:21:02.572Z,52.25
2018-11-05T02:25:08.692Z,52.03
2018-11-05T02:29:13.440Z,47.20
2018-11-05T02:33:17.894Z,46.48
2018-11-05T02:37:22.459Z,42.93
2018-11-05T02:41:27.027Z,42.37
2018-11-05T02:45:31.571Z,45.83
2018-11-05T02:49:35.789Z,43.67
2018-11-05T02:53:40.088Z,38.37
2018-11-05T02:57:44.510Z,40.95
2018-11-05T03:01:48.840Z,38.10
2018-11-05T03:05:53.116Z,41.03
2018-11-05T03:09:57.428Z,40.90
2018-11-05T03:14:01.863Z,38.13
2018-11-05T03:18:06.824Z,35.50
2018-11-05T03:22:11.127Z,36.70
2018-11-05T03:26:15.420Z,37.25
2018-11-05T03:30:19.850Z,36.83
2018-11-05T03:34:24.110Z,41.83
2018-11-05T03:38:28.452Z,41.77
2018-11-05T03:42:32.977Z,35.63
2018-11-05T03:46:38.635Z,36.93
2018-11-05T03:50:42.981Z,38.57
2018-11-05T03:54:47.964Z,42.75
2018-11-05T03:58:52.059Z,40.10
2018-11-05T04:02:56.833Z,41.87
2018-11-05T04:07:01.049Z,41.57
2018-11-05T04:11:05.765Z,49.03
2018-11-05T04:15:10.333Z,49.26
2018-11-05T04:19:15.249Z,32.47
2018-11-05T04:23:20.013Z,37.93
2018-11-05T04:27:24.172Z,35.67
2018-11-05T04:31:29.364Z,45.50
2018-11-05T04:35:34.037Z,42.57
2018-11-05T04:39:38.169Z,46.40
2018-11-05T04:43:42.770Z,43.43
2018-11-05T04:47:47.747Z,38.87
2018-11-05T04:51:52.277Z,43.47
2018-11-05T04:55:56.487Z,37.87
2018-11-05T05:00:05.393Z,44.47
2018-11-05T05:04:09.728Z,44.87
2018-11-05T05:08:15.005Z,38.53
2018-11-05T05:12:19.386Z,45.57
2018-11-05T05:16:23.901Z,42.60
2018-11-05T05:20:30.272Z,41.65
2018-11-05T05:24:35.046Z,46.33
2018-11-05T05:28:39.127Z,37.35
2018-11-05T05:32:44.941Z,37.77
2018-11-05T05:36:49.325Z,45.47
2018-11-05T05:40:53.515Z,37.27
2018-11-05T05:44:57.747Z,37.67
2018-11-05T05:49:02.447Z,42.53
2018-11-05T05:53:06.698Z,39.00
2018-11-05T05:57:11.796Z,51.73
2018-11-05T06:01:16.123Z,40.15
2018-11-05T06:05:20.617Z,47.50
2018-11-05T06:09:25.066Z,55.87
2018-11-05T06:13:29.436Z,45.17
2018-11-05T06:17:33.924Z,39.50
2018-11-05T06:21:38.219Z,37.75
2018-11-05T06:25:42.701Z,49.00
2018-11-05T06:29:46.908Z,52.17
2018-11-05T06:33:51.302Z,55.73
2018-11-05T06:37:55.564Z,54.83
2018-11-05T06:41:59.755Z,52.43
2018-11-05T06:46:04.011Z,56.83
2018-11-05T06:50:10.336Z,63.57
2018-11-05T06:54:15.076Z,59.93
2018-11-05T06:58:19.861Z,64.37
2018-11-05T07:02:24.275Z,42.90
2018-11-05T07:06:28.760Z,48.40
2018-11-05T07:10:33.786Z,41.40
2018-11-05T07:14:38.174Z,54.20
2018-11-05T07:18:42.515Z,49.20
2018-11-05T07:22:48.082Z,51.17
2018-11-05T07:26:53.510Z,42.58
2018-11-05T07:30:57.962Z,44.07
2018-11-05T07:35:02.455Z,48.93
2018-11-05T07:39:10.229Z,49.50
2018-11-05T07:43:14.945Z,41.23
2018-11-05T07:47:19.392Z,47.80
2018-11-05T07:51:23.845Z,37.00
2018-11-05T07:55:28.408Z,42.10
2018-11-05T07:59:32.833Z,34.40
2018-11-05T08:03:37.919Z,40.00
2018-11-05T08:07:43.301Z,34.78
2018-11-05T08:11:47.315Z,37.90
2018-11-05T08:15:51.812Z,40.33
2018-11-05T08:19:55.984Z,38.47
2018-11-05T08:24:00.078Z,42.77
2018-11-05T08:28:05.594Z,41.08
2018-11-05T08:32:09.592Z,40.52
2018-11-05T08:36:13.907Z,32.08
2018-11-05T08:40:23.967Z,33.98
2018-11-05T08:44:28.533Z,39.50
2018-11-05T08:48:33.273Z,27.93
2018-11-05T08:52:37.730Z,29.97
2018-11-05T08:56:41.684Z,29.83
2018-11-05T09:00:51.137Z,31.23
2018-11-05T09:04:55.480Z,31.17
2018-11-05T09:08:59.400Z,28.93
2018-11-05T09:13:03.567Z,25.53
2018-11-05T09:17:07.865Z,24.03
2018-11-05T09:21:12.312Z,28.35
2018-11-05T09:25:16.955Z,25.52
2018-11-05T09:29:21.170Z,25.55
2018-11-05T09:33:25.110Z,23.13
2018-11-05T09:37:29.179Z,22.70
2018-11-05T09:41:33.247Z,21.90
2018-11-05T09:45:37.547Z,23.67
2018-11-05T09:49:41.709Z,21.67
2018-11-05T09:53:45.733Z,22.40
2018-11-05T09:57:49.754Z,24.20
2018-11-05T10:01:54.075Z,23.50
2018-11-05T10:05:58.041Z,25.67
2018-11-05T10:10:03.387Z,25.03
2018-11-05T10:14:07.882Z,25.50
2018-11-05T10:18:11.930Z,25.93
2018-11-05T10:22:16.817Z,25.72
2018-11-05T10:26:20.843Z,27.65
2018-11-05T10:30:26.027Z,28.53
2018-11-05T10:34:30.039Z,29.53
2018-11-05T10:38:34.288Z,30.67
2018-11-05T10:42:39.343Z,30.67
2018-11-05T10:46:43.505Z,37.67
2018-11-05T10:50:47.782Z,43.20
2018-11-05T10:54:51.807Z,48.50
2018-11-05T10:58:56.137Z,45.67
2018-11-05T11:03:05.823Z,48.60
2018-11-05T11:07:09.990Z,47.77
2018-11-05T11:11:14.617Z,52.43
2018-11-05T11:15:18.897Z,48.73
2018-11-05T11:19:22.917Z,55.88
2018-11-05T11:23:27.207Z,52.80
2018-11-05T11:27:31.979Z,60.67
2018-11-05T11:31:35.911Z,53.23
2018-11-05T11:35:40.291Z,47.77
2018-11-05T11:39:44.431Z,55.13
2018-11-05T11:43:50.184Z,49.47
2018-11-05T11:47:54.191Z,51.90
2018-11-05T11:51:59.228Z,50.90
2018-11-05T11:56:03.251Z,59.95
2018-11-05T12:00:17.062Z,49.10
2018-11-05T12:04:21.063Z,55.05
2018-11-05T12:08:25.106Z,64.07
2018-11-05T12:12:29.182Z,59.37
2018-11-05T12:16:33.229Z,54.93
2018-11-05T12:20:37.593Z,59.77
2018-11-05T12:24:42.495Z,57.73
2018-11-05T12:28:48.087Z,58.87
2018-11-05T12:32:53.220Z,54.33
2018-11-05T12:36:57.392Z,53.17
2018-11-05T12:41:02.181Z,53.20
2018-11-05T12:45:07.391Z,53.80
2018-11-05T12:49:11.413Z,59.00
2018-11-05T12:53:15.718Z,59.35
2018-11-05T12:57:20.287Z,55.00
2018-11-05T13:01:24.420Z,58.43
2018-11-05T13:05:29.566Z,53.17
2018-11-05T13:09:33.785Z,52.13
2018-11-05T13:13:37.997Z,55.28
2018-11-05T13:17:42.330Z,52.63
2018-11-05T13:21:46.651Z,54.40
2018-11-05T13:25:50.860Z,57.43
2018-11-05T13:29:55.369Z,56.53
2018-11-05T13:33:59.268Z,52.00
2018-11-05T13:38:03.872Z,48.33
2018-11-05T13:42:07.342Z,55.87
2018-11-05T13:46:11.406Z,57.65
2018-11-05T13:50:15.870Z,50.40
2018-11-05T13:54:19.590Z,49.75
2018-11-05T13:58:24.105Z,50.40
2018-11-05T14:02:28.020Z,45.50
2018-11-05T14:06:33.198Z,48.30
2018-11-05T14:10:37.099Z,52.17
2018-11-05T14:14:41.531Z,46.23
2018-11-05T14:18:45.413Z,54.27
2018-11-05T14:22:49.316Z,51.87
2018-11-05T14:26:53.250Z,51.30
2018-11-05T14:30:57.135Z,48.90
2018-11-05T14:35:01.729Z,45.43
2018-11-05T14:39:09.121Z,51.70
2018-11-05T14:43:13.145Z,50.75
2018-11-05T14:47:16.872Z,47.48
2018-11-05T14:51:21.143Z,46.37
2018-11-05T14:55:24.915Z,50.50
2018-11-05T14:59:28.896Z,58.23
2018-11-05T15:03:32.824Z,48.17
2018-11-05T15:07:37.382Z,50.33
2018-11-05T15:11:41.098Z,47.60
2018-11-05T15:15:45.261Z,52.50
2018-11-05T15:19:49.421Z,46.07
2018-11-05T15:23:53.045Z,47.40
2018-11-05T15:27:57.337Z,42.17
2018-11-05T15:32:01.420Z,40.40
2018-11-05T15:36:05.806Z,40.83
2018-11-05T15:40:11.412Z,44.45
2018-11-05T15:44:15.296Z,41.70
2018-11-05T15:48:19.196Z,45.00
2018-11-05T15:52:23.952Z,48.20
2018-11-05T15:56:27.703Z,46.43
2018-11-05T16:00:31.635Z,49.60
2018-11-05T16:04:35.671Z,43.93
2018-11-05T16:08:39.476Z,46.20
2018-11-05T16:12:43.443Z,47.20
2018-11-05T16:16:47.317Z,40.10
2018-11-05T16:20:51.220Z,46.23
2018-11-05T16:24:55.137Z,48.70
2018-11-05T16:28:59.071Z,45.55
2018-11-05T16:33:03.012Z,46.27
2018-11-05T16:37:06.961Z,36.33
2018-11-05T16:41:10.824Z,42.67
2018-11-05T16:45:15.621Z,45.17
2018-11-05T16:49:19.859Z,40.57
2018-11-05T16:53:24.203Z,41.27
2018-11-05T16:57:28.186Z,44.30
2018-11-05T17:01:32.405Z,40.00
2018-11-05T17:05:36.309Z,42.90
2018-11-05T17:09:41.180Z,44.23
2018-11-05T17:13:45.526Z,46.93
2018-11-05T17:17:49.354Z,45.10
2018-11-05T17:21:53.256Z,47.00
2018-11-05T17:25:57.364Z,51.07
2018-11-05T17:30:01.476Z,47.10
2018-11-05T17:34:06.237Z,52.33
2018-11-05T17:38:10.109Z,49.13
2018-11-05T17:42:13.984Z,44.83
2018-11-05T17:46:17.889Z,46.23
2018-11-05T17:50:22.413Z,51.10
2018-11-05T17:54:26.302Z,51.93
2018-11-05T17:58:30.162Z,43.93
2018-11-05T18:02:34.527Z,43.27
2018-11-05T18:06:38.456Z,43.67
2018-11-05T18:10:42.389Z,41.73
2018-11-05T18:14:46.343Z,47.50
2018-11-05T18:18:50.331Z,48.30
2018-11-05T18:22:54.480Z,42.55
2018-11-05T18:26:58.433Z,38.10
2018-11-05T18:31:02.797Z,41.68
2018-11-05T18:35:08.626Z,44.58
2018-11-05T18:39:12.685Z,46.10
2018-11-05T18:43:16.568Z,42.93
2018-11-05T18:47:21.572Z,42.15
2018-11-05T18:51:25.474Z,42.67
2018-11-05T18:55:30.740Z,40.60
2018-11-05T18:59:34.895Z,38.80
2018-11-05T19:03:38.891Z,42.00
2018-11-05T19:07:42.885Z,43.60
2018-11-05T19:11:47.090Z,39.30
2018-11-05T19:15:51.011Z,48.80
2018-11-05T19:19:54.812Z,42.80
2018-11-05T19:23:59.063Z,39.13
2018-11-05T19:28:02.915Z,40.40
2018-11-05T19:32:08.310Z,44.70
2018-11-05T19:36:12.327Z,39.53
2018-11-05T19:40:17.885Z,42.27
2018-11-05T19:44:21.768Z,45.40
2018-11-05T19:48:26.418Z,44.23
2018-11-05T19:52:30.349Z,42.67
2018-11-05T19:56:34.621Z,41.37
2018-11-05T20:00:38.556Z,42.57
2018-11-05T20:04:42.978Z,42.43
2018-11-05T20:08:47.250Z,42.87
2018-11-05T20:12:51.371Z,35.73
2018-11-05T20:16:57.167Z,46.92
2018-11-05T20:21:00.912Z,50.10
2018-11-05T20:25:07.536Z,40.93
2018-11-05T20:29:11.524Z,41.60
2018-11-05T20:33:15.779Z,39.15
2018-11-05T20:37:19.324Z,37.25
2018-11-05T20:41:23.512Z,35.93
2018-11-05T20:45:27.430Z,36.33
2018-11-05T20:49:32.496Z,34.97
2018-11-05T20:53:36.575Z,31.57
2018-11-05T20:57:41.048Z,31.90
2018-11-05T21:01:44.981Z,38.43
2018-11-05T21:05:49.340Z,34.35
2018-11-05T21:09:53.213Z,33.70
2018-11-05T21:13:58.551Z,33.87
2018-11-05T21:18:02.611Z,43.43
2018-11-05T21:22:09.273Z,38.02
2018-11-05T21:26:13.104Z,43.30
2018-11-05T21:30:18.403Z,38.95
2018-11-05T21:34:22.304Z,43.02
2018-11-05T21:38:26.217Z,50.90
2018-11-05T21:42:30.165Z,51.47
2018-11-05T21:46:34.212Z,54.93
2018-11-05T21:50:38.110Z,44.83
2018-11-05T21:54:42.001Z,46.50
2018-11-05T21:58:45.942Z,32.17
2018-11-05T22:02:55.599Z,30.93
2018-11-05T22:06:59.495Z,31.40
2018-11-05T22:11:03.410Z,33.07
2018-11-05T22:15:07.382Z,51.13
2018-11-05T22:19:12.344Z,34.23
2018-11-05T22:23:17.734Z,52.80
2018-11-05T22:27:22.472Z,50.88
2018-11-05T22:31:27.521Z,37.93
2018-11-05T22:35:32.414Z,34.53
2018-11-05T22:39:36.295Z,31.63
2018-11-05T22:43:40.276Z,39.30
2018-11-05T22:47:44.961Z,39.48
2018-11-05T22:51:49.901Z,46.47
2018-11-05T22:55:54.987Z,54.75
2018-11-05T22:59:59.001Z,37.60
2018-11-05T23:04:03.765Z,34.15
2018-11-05T23:08:07.655Z,31.43
2018-11-05T23:12:11.818Z,33.05
2018-11-05T23:16:16.098Z,27.82
2018-11-05T23:20:20.126Z,30.57
2018-11-05T23:24:24.241Z,50.47
2018-11-05T23:28:28.435Z,30.10
2018-11-05T23:32:32.372Z,25.53
2018-11-05T23:36:36.820Z,29.53
2018-11-05T23:40:40.738Z,29.43
2018-11-05T23:44:44.728Z,24.87
2018-11-05T23:48:48.656Z,27.63
2018-11-05T23:52:52.838Z,26.50
2018-11-05T23:56:56.724Z,26.40
